createdAt,value
2023-01-04T00:01:26.591Z,100.00
2023-01-04T00:03:53.340Z,100.00
2023-01-04T00:06:20.425Z,100.00
2023-01-04T00:08:47.511Z,100.00
2023-01-04T00:11:20.149Z,100.00
2023-01-04T00:13:48.762Z,100.00
2023-01-04T00:16:23.280Z,100.00
2023-01-04T00:18:51.566Z,100.00
2023-01-04T00:21:24.066Z,100.00
2023-01-04T00:23:53.041Z,100.00
2023-01-04T00:26:24.414Z,100.00
2023-01-04T00:28:55.767Z,100.00
2023-01-04T00:31:23.448Z,100.00
2023-01-04T00:33:51.325Z,100.00
2023-01-04T00:36:17.901Z,100.00
2023-01-04T00:38:45.063Z,100.00
2023-01-04T00:41:34.284Z,100.00
2023-01-04T00:44:03.156Z,100.00
2023-01-04T00:46:30.536Z,100.00
2023-01-04T00:49:00.386Z,100.00
2023-01-04T00:51:28.273Z,100.00
2023-01-04T00:53:54.864Z,100.00
2023-01-04T00:56:21.798Z,100.00
2023-01-04T00:58:48.701Z,100.00
2023-01-04T01:01:15.381Z,100.00
2023-01-04T01:03:44.481Z,100.00
2023-01-04T01:06:12.357Z,100.00
2023-01-04T01:08:39.083Z,100.00
2023-01-04T01:11:08.922Z,100.00
2023-01-04T01:13:36.854Z,100.00
2023-01-04T01:16:08.826Z,100.00
2023-01-04T01:18:37.066Z,100.00
2023-01-04T01:21:12.659Z,100.00
2023-01-04T01:23:39.944Z,100.00
2023-01-04T01:26:10.498Z,100.00
2023-01-04T01:28:37.177Z,100.00
2023-01-04T01:31:15.681Z,100.00
2023-01-04T01:33:44.023Z,100.00
2023-01-04T01:36:11.894Z,100.00
2023-01-04T01:38:39.465Z,100.00
2023-01-04T01:41:07.394Z,100.00
2023-01-04T01:43:52.633Z,100.00
2023-01-04T01:46:27.189Z,100.00
2023-01-04T01:48:59.099Z,100.00
2023-01-04T01:51:27.229Z,100.00
2023-01-04T01:54:01.174Z,100.00
2023-01-04T01:56:29.657Z,100.00
2023-01-04T01:58:58.574Z,100.00
2023-01-04T02:01:26.086Z,100.00
2023-01-04T02:03:52.946Z,100.00
2023-01-04T02:06:25.708Z,100.00
2023-01-04T02:08:52.778Z,100.00
2023-01-04T02:11:19.354Z,100.00
2023-01-04T02:14:04.914Z,100.00
2023-01-04T02:16:46.258Z,100.00
2023-01-04T02:19:28.385Z,100.00
2023-01-04T02:22:04.050Z,100.00
2023-01-04T02:24:58.618Z,100.00
2023-01-04T02:27:39.348Z,100.00
2023-01-04T02:30:44.184Z,100.00
2023-01-04T02:33:43.019Z,100.00
2023-01-04T02:36:53.007Z,100.00
2023-01-04T02:39:55.569Z,100.00
2023-01-04T02:42:56.287Z,100.00
2023-01-04T02:45:25.162Z,100.00
2023-01-04T02:48:10.531Z,100.00
2023-01-04T02:50:50.089Z,100.00
2023-01-04T02:53:41.009Z,100.00
2023-01-04T02:56:35.618Z,100.00
2023-01-04T02:59:03.263Z,100.00
2023-01-04T03:02:30.085Z,100.00
2023-01-04T03:05:35.956Z,100.00
2023-01-04T03:08:27.485Z,100.00
2023-01-04T03:11:02.672Z,100.00
2023-01-04T03:13:37.879Z,100.00
2023-01-04T03:16:11.260Z,100.00
2023-01-04T03:18:43.496Z,100.00
2023-01-04T03:21:13.222Z,100.00
2023-01-04T03:23:59.479Z,100.00
2023-01-04T03:26:52.353Z,100.00
2023-01-04T03:29:50.371Z,100.00
2023-01-04T03:32:46.470Z,100.00
2023-01-04T03:35:28.195Z,100.00
2023-01-04T03:38:51.391Z,100.00
2023-01-04T03:42:10.163Z,100.00
2023-01-04T03:45:24.284Z,100.00
2023-01-04T03:48:25.968Z,100.00
2023-01-04T03:51:00.392Z,100.00
2023-01-04T03:53:28.448Z,100.00
2023-01-04T03:55:58.392Z,100.00
2023-01-04T03:58:25.828Z,100.00
2023-01-04T04:00:52.537Z,100.00
2023-01-04T04:03:19.117Z,100.00
2023-01-04T04:06:04.899Z,100.00
2023-01-04T04:08:31.550Z,100.00
2023-01-04T04:11:20.305Z,100.00
2023-01-04T04:13:50.776Z,100.00
2023-01-04T04:16:17.802Z,100.00
2023-01-04T04:18:44.703Z,100.00
2023-01-04T04:21:11.314Z,100.00
2023-01-04T04:23:38.205Z,100.00
2023-01-04T04:26:04.956Z,100.00
2023-01-04T04:28:32.903Z,100.00
2023-01-04T04:30:59.514Z,100.00
2023-01-04T04:33:26.067Z,100.00
2023-01-04T04:35:54.894Z,100.00
2023-01-04T04:38:21.899Z,100.00
2023-01-04T04:41:07.266Z,100.00
2023-01-04T04:43:34.378Z,100.00
2023-01-04T04:46:01.390Z,100.00
2023-01-04T04:48:28.059Z,100.00
2023-01-04T04:50:54.712Z,100.00
2023-01-04T04:53:21.315Z,100.00
2023-01-04T04:55:51.882Z,100.00
2023-01-04T04:58:18.513Z,100.00
2023-01-04T05:00:45.141Z,100.00
2023-01-04T05:03:11.775Z,100.00
2023-01-04T05:05:38.430Z,100.00
2023-01-04T05:08:05.295Z,100.00
2023-01-04T05:10:31.816Z,100.00
2023-01-04T05:13:00.966Z,100.00
2023-01-04T05:15:31.681Z,100.00
2023-01-04T05:17:58.244Z,100.00
2023-01-04T05:20:24.862Z,100.00
2023-01-04T05:22:51.528Z,100.00
2023-01-04T05:25:18.779Z,100.00
2023-01-04T05:27:45.524Z,100.00
2023-01-04T05:30:32.444Z,100.00
2023-01-04T05:32:59.826Z,100.00
2023-01-04T05:35:26.604Z,100.00
2023-01-04T05:37:53.524Z,100.00
2023-01-04T05:40:21.223Z,100.00
2023-01-04T05:42:48.315Z,100.00
2023-01-04T05:45:16.131Z,100.00
2023-01-04T05:47:45.325Z,100.00
2023-01-04T05:50:11.936Z,100.00
2023-01-04T05:52:38.501Z,100.00
2023-01-04T05:55:05.459Z,100.00
2023-01-04T05:57:32.024Z,100.00
2023-01-04T05:59:58.579Z,100.00
2023-01-04T06:02:29.112Z,100.00
2023-01-04T06:04:59.209Z,100.00
2023-01-04T06:07:27.309Z,100.00
2023-01-04T06:09:53.881Z,100.00
2023-01-04T06:12:20.473Z,100.00
2023-01-04T06:14:47.178Z,100.00
2023-01-04T06:17:13.912Z,100.00
2023-01-04T06:19:40.569Z,100.00
2023-01-04T06:22:08.120Z,100.00
2023-01-04T06:24:34.758Z,100.00
2023-01-04T06:27:02.634Z,100.00
2023-01-04T06:29:29.274Z,100.00
2023-01-04T06:31:55.885Z,100.00
2023-01-04T06:34:26.984Z,100.00
2023-01-04T06:36:56.996Z,100.00
2023-01-04T06:39:23.900Z,100.00
2023-01-04T06:41:50.451Z,100.00
2023-01-04T06:44:17.118Z,100.00
2023-01-04T06:46:43.845Z,100.00
2023-01-04T06:49:10.509Z,100.00
2023-01-04T06:51:37.079Z,100.00
2023-01-04T06:54:03.821Z,100.00
2023-01-04T06:56:32.041Z,100.00
2023-01-04T06:58:58.757Z,100.00
2023-01-04T07:01:25.883Z,100.00
2023-01-04T07:03:52.571Z,100.00
2023-01-04T07:06:19.185Z,100.00
2023-01-04T07:08:45.778Z,100.00
2023-01-04T07:11:12.478Z,100.00
2023-01-04T07:13:39.071Z,100.00
2023-01-04T07:16:06.117Z,100.00
2023-01-04T07:18:32.737Z,100.00
2023-01-04T07:20:59.312Z,100.00
2023-01-04T07:23:25.988Z,100.00
2023-01-04T07:25:52.611Z,100.00
2023-01-04T07:28:39.118Z,100.00
2023-01-04T07:31:07.707Z,100.00
2023-01-04T07:33:34.419Z,100.00
2023-01-04T07:36:05.671Z,100.00
2023-01-04T07:38:34.018Z,100.00
2023-01-04T07:41:00.692Z,100.00
2023-01-04T07:43:28.438Z,100.00
2023-01-04T07:45:55.600Z,100.00
2023-01-04T07:48:22.362Z,100.00
2023-01-04T07:50:50.142Z,100.00
2023-01-04T07:53:16.889Z,100.00
2023-01-04T07:55:43.483Z,100.00
2023-01-04T07:58:10.134Z,100.00
2023-01-04T08:00:36.856Z,100.00
2023-01-04T08:03:03.719Z,100.00
2023-01-04T08:05:35.017Z,100.00
2023-01-04T08:08:01.715Z,100.00
2023-01-04T08:10:28.713Z,100.00
2023-01-04T08:12:57.830Z,100.00
2023-01-04T08:15:24.378Z,100.00
2023-01-04T08:17:51.160Z,100.00
2023-01-04T08:20:18.273Z,100.00
2023-01-04T08:22:44.856Z,100.00
2023-01-04T08:25:11.433Z,100.00
2023-01-04T08:27:38.024Z,100.00
2023-01-04T08:30:05.537Z,100.00
2023-01-04T08:32:32.080Z,100.00
2023-01-04T08:34:58.671Z,100.00
2023-01-04T08:37:25.255Z,100.00
2023-01-04T08:39:51.840Z,100.00
2023-01-04T08:42:28.216Z,100.00
2023-01-04T08:44:59.807Z,100.00
2023-01-04T08:47:31.037Z,100.00
2023-01-04T08:49:58.242Z,100.00
2023-01-04T08:52:25.588Z,100.00
2023-01-04T08:54:52.926Z,100.00
2023-01-04T08:57:19.894Z,100.00
2023-01-04T08:59:46.500Z,100.00
2023-01-04T09:02:25.467Z,100.00
2023-01-04T09:04:52.770Z,100.00
2023-01-04T09:07:19.662Z,100.00
2023-01-04T09:09:46.267Z,100.00
2023-01-04T09:12:12.958Z,100.00
2023-01-04T09:14:39.732Z,100.00
2023-01-04T09:17:06.544Z,100.00
2023-01-04T09:19:33.495Z,100.00
2023-01-04T09:22:00.324Z,100.00
2023-01-04T09:24:26.977Z,99.06
2023-01-04T09:26:53.667Z,88.94
2023-01-04T09:29:20.721Z,94.06
2023-01-04T09:31:47.524Z,90.50
2023-01-04T09:34:16.700Z,87.29
2023-01-04T09:36:44.838Z,73.43
2023-01-04T09:39:18.785Z,73.43
2023-01-04T09:42:04.071Z,73.99
2023-01-04T09:45:12.221Z,66.57
2023-01-04T09:47:29.741Z,61.47
2023-01-04T09:50:05.469Z,53.95
2023-01-04T09:52:50.155Z,55.68
2023-01-04T09:55:39.497Z,56.30
2023-01-04T09:58:23.404Z,55.58
2023-01-04T10:01:02.694Z,51.17
2023-01-04T10:03:34.445Z,45.50
2023-01-04T10:06:02.496Z,50.23
2023-01-04T10:08:31.464Z,46.86
2023-01-04T10:11:35.196Z,46.38
2023-01-04T10:14:14.872Z,41.53
2023-01-04T10:17:23.554Z,47.21
2023-01-04T10:22:52.280Z,46.83
2023-01-04T10:25:34.105Z,42.78
2023-01-04T10:28:29.137Z,43.82
2023-01-04T10:31:39.984Z,41.96
2023-01-04T10:34:22.151Z,42.21
2023-01-04T10:36:51.368Z,45.34
2023-01-04T10:39:24.584Z,46.53
2023-01-04T10:42:01.005Z,47.63
2023-01-04T10:44:37.805Z,51.78
2023-01-04T10:47:17.736Z,47.28
2023-01-04T10:49:53.689Z,49.63
2023-01-04T10:52:26.027Z,46.63
2023-01-04T10:55:00.164Z,49.10
2023-01-04T10:57:43.891Z,46.64
2023-01-04T11:00:10.735Z,48.46
2023-01-04T11:02:40.115Z,48.71
2023-01-04T11:05:15.733Z,48.93
2023-01-04T11:07:48.216Z,47.16
2023-01-04T11:10:45.170Z,48.46
2023-01-04T11:13:11.783Z,46.64
2023-01-04T11:15:38.505Z,46.45
2023-01-04T11:18:07.750Z,45.92
2023-01-04T11:20:38.038Z,49.25
2023-01-04T11:23:11.535Z,48.92
2023-01-04T11:25:44.024Z,49.49
2023-01-04T11:28:25.898Z,49.76
2023-01-04T11:31:04.498Z,51.91
2023-01-04T11:33:31.583Z,47.61
2023-01-04T11:35:59.572Z,47.34
2023-01-04T11:38:30.624Z,45.07
2023-01-04T11:41:05.890Z,47.23
2023-01-04T11:43:37.232Z,46.16
2023-01-04T11:46:06.735Z,45.53
2023-01-04T11:48:36.394Z,47.50
2023-01-04T11:51:03.778Z,47.87
2023-01-04T11:53:37.423Z,47.77
2023-01-04T11:56:22.605Z,48.65
2023-01-04T11:59:11.114Z,45.84
2023-01-04T12:01:45.915Z,45.39
2023-01-04T12:04:20.913Z,43.88
2023-01-04T12:06:56.868Z,50.13
2023-01-04T12:09:23.803Z,45.07
2023-01-04T12:11:53.503Z,43.97
2023-01-04T12:14:21.880Z,43.67
2023-01-04T12:16:52.494Z,43.87
2023-01-04T12:19:21.400Z,50.14
2023-01-04T12:21:51.446Z,49.98
2023-01-04T12:24:22.350Z,50.97
2023-01-04T12:26:50.663Z,49.71
2023-01-04T12:29:23.251Z,52.05
2023-01-04T12:31:52.119Z,52.51
2023-01-04T12:34:26.077Z,55.46
2023-01-04T12:36:52.514Z,59.37
2023-01-04T12:39:29.282Z,64.66
2023-01-04T12:42:01.713Z,68.49
2023-01-04T12:44:40.360Z,73.00
2023-01-04T12:47:34.808Z,76.89
2023-01-04T12:50:11.788Z,78.11
2023-01-04T12:55:32.505Z,83.98
2023-01-04T12:58:01.913Z,88.65
2023-01-04T13:00:50.120Z,90.19
2023-01-04T13:03:17.374Z,91.83
2023-01-04T13:06:03.028Z,90.68
2023-01-04T13:08:33.529Z,94.78
2023-01-04T13:11:01.705Z,97.52
2023-01-04T13:13:41.976Z,100.00
2023-01-04T13:16:14.241Z,100.00
2023-01-04T13:18:49.406Z,100.00
2023-01-04T13:21:34.815Z,100.00
2023-01-04T13:24:05.196Z,100.00
2023-01-04T13:26:31.730Z,100.00
2023-01-04T13:29:10.340Z,100.00
2023-01-04T13:32:01.739Z,100.00
2023-01-04T13:34:38.060Z,100.00
2023-01-04T13:37:10.738Z,100.00
2023-01-04T13:39:43.895Z,100.00
2023-01-04T13:42:24.748Z,100.00
2023-01-04T13:45:20.474Z,100.00
2023-01-04T13:47:51.312Z,100.00
2023-01-04T13:50:47.371Z,100.00
2023-01-04T13:53:25.462Z,100.00
2023-01-04T13:56:01.072Z,100.00
2023-01-04T13:58:32.970Z,100.00
2023-01-04T14:01:11.731Z,100.00
2023-01-04T14:03:45.168Z,100.00
2023-01-04T14:06:14.577Z,100.00
2023-01-04T14:08:48.173Z,100.00
2023-01-04T14:11:38.286Z,100.00
2023-01-04T14:14:15.434Z,100.00
2023-01-04T14:16:42.113Z,100.00
2023-01-04T14:19:39.640Z,100.00
2023-01-04T14:22:29.793Z,100.00
2023-01-04T14:25:14.493Z,100.00
2023-01-04T14:27:43.022Z,100.00
2023-01-04T14:30:24.518Z,100.00
2023-01-04T14:33:02.909Z,100.00
2023-01-04T14:35:30.511Z,100.00
2023-01-04T14:38:06.443Z,100.00
2023-01-04T14:40:33.682Z,100.00
2023-01-04T14:43:00.327Z,100.00
2023-01-04T14:45:27.074Z,100.00
2023-01-04T14:47:53.709Z,100.00
2023-01-04T14:50:20.451Z,100.00
2023-01-04T14:52:51.672Z,100.00
2023-01-04T14:55:18.319Z,100.00
2023-01-04T14:57:45.364Z,100.00
2023-01-04T15:00:19.408Z,100.00
2023-01-04T15:02:51.573Z,100.00
2023-01-04T15:05:21.186Z,100.00
2023-01-04T15:07:48.343Z,100.00
2023-01-04T15:10:32.807Z,100.00
2023-01-04T15:13:04.221Z,100.00
2023-01-04T15:15:33.451Z,100.00
2023-01-04T15:18:00.151Z,100.00
2023-01-04T15:20:26.767Z,100.00
2023-01-04T15:22:53.333Z,100.00
2023-01-04T15:25:19.905Z,100.00
2023-01-04T15:27:46.445Z,100.00
2023-01-04T15:30:14.132Z,100.00
2023-01-04T15:32:41.191Z,100.00
2023-01-04T15:35:08.387Z,100.00
2023-01-04T15:37:34.982Z,100.00
2023-01-04T15:40:03.374Z,100.00
2023-01-04T15:42:48.971Z,100.00
2023-01-04T15:45:15.843Z,100.00
2023-01-04T15:47:42.643Z,100.00
2023-01-04T15:50:09.411Z,100.00
2023-01-04T15:52:35.990Z,100.00
2023-01-04T15:55:02.699Z,100.00
2023-01-04T15:57:29.229Z,100.00
2023-01-04T15:59:55.867Z,100.00
2023-01-04T16:02:22.505Z,100.00
2023-01-04T16:04:49.647Z,100.00
2023-01-04T16:07:17.408Z,100.00
2023-01-04T16:09:44.069Z,100.00
2023-01-04T16:12:28.912Z,100.00
2023-01-04T16:14:55.499Z,100.00
2023-01-04T16:17:22.115Z,100.00
2023-01-04T16:19:48.667Z,100.00
2023-01-04T16:22:15.245Z,100.00
2023-01-04T16:27:34.805Z,100.00
2023-01-04T16:30:07.424Z,100.00
2023-01-04T16:32:35.043Z,100.00
2023-01-04T16:35:01.636Z,100.00
2023-01-04T16:37:29.121Z,100.00
2023-01-04T16:40:11.128Z,100.00
2023-01-04T16:42:38.849Z,100.00
2023-01-04T16:45:06.783Z,100.00
2023-01-04T16:47:43.821Z,100.00
2023-01-04T16:50:12.450Z,100.00
2023-01-04T16:52:39.985Z,100.00
2023-01-04T16:55:07.268Z,100.00
2023-01-04T16:57:34.017Z,100.00
2023-01-04T17:00:00.599Z,100.00
2023-01-04T17:02:27.318Z,100.00
2023-01-04T17:04:59.603Z,100.00
2023-01-04T17:07:32.912Z,100.00
2023-01-04T17:10:00.875Z,100.00
2023-01-04T17:15:41.985Z,100.00
2023-01-04T17:18:00.694Z,100.00
2023-01-04T17:20:27.267Z,100.00
2023-01-04T17:22:56.039Z,100.00
2023-01-04T17:25:22.634Z,100.00
2023-01-04T17:27:51.554Z,100.00
2023-01-04T17:30:18.193Z,100.00
2023-01-04T17:32:44.748Z,100.00
2023-01-04T17:35:11.326Z,100.00
2023-01-04T17:37:37.909Z,100.00
2023-01-04T17:40:04.858Z,100.00
2023-01-04T17:42:34.373Z,100.00
2023-01-04T17:45:00.952Z,100.00
2023-01-04T17:47:27.795Z,100.00
2023-01-04T17:49:54.465Z,100.00
2023-01-04T17:52:30.407Z,100.00
2023-01-04T17:54:57.713Z,100.00
2023-01-04T17:57:24.347Z,100.00
2023-01-04T17:59:53.647Z,100.00
2023-01-04T18:02:22.295Z,100.00
2023-01-04T18:04:49.109Z,100.00
2023-01-04T18:07:15.803Z,100.00
2023-01-04T18:09:42.390Z,100.00
2023-01-04T18:12:09.035Z,100.00
2023-01-04T18:14:35.591Z,100.00
2023-01-04T18:17:02.234Z,100.00
2023-01-04T18:19:30.613Z,100.00
2023-01-04T18:21:58.247Z,100.00
2023-01-04T18:24:41.738Z,100.00
2023-01-04T18:27:28.445Z,100.00
2023-01-04T18:29:56.224Z,100.00
2023-01-04T18:32:24.935Z,100.00
2023-01-04T18:34:51.543Z,100.00
2023-01-04T18:37:19.002Z,100.00
2023-01-04T18:39:46.719Z,100.00
2023-01-04T18:42:13.390Z,100.00
2023-01-04T18:44:47.372Z,100.00
2023-01-04T18:47:15.565Z,100.00
2023-01-04T18:49:42.150Z,100.00
2023-01-04T18:52:08.803Z,100.00
2023-01-04T18:54:35.498Z,100.00
2023-01-04T18:57:02.160Z,100.00
2023-01-04T18:59:32.224Z,100.00
2023-01-04T19:02:01.590Z,100.00
2023-01-04T19:04:29.954Z,100.00
2023-01-04T19:06:56.713Z,100.00
2023-01-04T19:09:23.717Z,100.00
2023-01-04T19:11:50.358Z,100.00
2023-01-04T19:14:17.425Z,100.00
2023-01-04T19:16:44.217Z,100.00
2023-01-04T19:19:11.304Z,100.00
2023-01-04T19:21:37.944Z,100.00
2023-01-04T19:24:04.868Z,100.00
2023-01-04T19:26:31.487Z,100.00
2023-01-04T19:28:58.064Z,100.00
2023-01-04T19:31:24.668Z,100.00
2023-01-04T19:33:51.317Z,100.00
2023-01-04T19:36:19.175Z,100.00
2023-01-04T19:38:46.160Z,100.00
2023-01-04T19:41:20.870Z,100.00
2023-01-04T19:43:47.640Z,100.00
2023-01-04T19:46:14.627Z,100.00
2023-01-04T19:48:41.631Z,100.00
2023-01-04T19:51:12.999Z,100.00
2023-01-04T19:53:39.681Z,100.00
2023-01-04T19:56:07.138Z,100.00
2023-01-04T19:58:33.921Z,100.00
2023-01-04T20:01:00.786Z,100.00
2023-01-04T20:03:27.678Z,100.00
2023-01-04T20:05:55.155Z,100.00
2023-01-04T20:08:22.595Z,100.00
2023-01-04T20:10:57.139Z,100.00
2023-01-04T20:13:23.804Z,100.00
2023-01-04T20:15:53.367Z,100.00
2023-01-04T20:18:21.162Z,100.00
2023-01-04T20:20:47.876Z,100.00
2023-01-04T20:23:15.441Z,100.00
2023-01-04T20:25:47.253Z,100.00
2023-01-04T20:28:15.053Z,100.00
2023-01-04T20:30:41.824Z,100.00
2023-01-04T20:33:08.991Z,100.00
2023-01-04T20:35:40.856Z,100.00
2023-01-04T20:38:07.799Z,100.00
2023-01-04T20:40:36.169Z,100.00
2023-01-04T20:43:27.624Z,100.00
2023-01-04T20:45:54.274Z,100.00
2023-01-04T20:48:20.952Z,100.00
2023-01-04T20:50:47.551Z,100.00
2023-01-04T20:53:14.241Z,100.00
2023-01-04T20:55:42.290Z,100.00
2023-01-04T20:58:10.784Z,100.00
2023-01-04T21:00:38.008Z,100.00
2023-01-04T21:03:06.902Z,100.00
2023-01-04T21:05:38.246Z,100.00
2023-01-04T21:08:08.641Z,100.00
2023-01-04T21:10:36.643Z,100.00
2023-01-04T21:13:03.896Z,100.00
2023-01-04T21:15:30.711Z,100.00
2023-01-04T21:17:57.492Z,100.00
2023-01-04T21:20:24.787Z,100.00
2023-01-04T21:22:51.418Z,100.00
2023-01-04T21:25:18.181Z,100.00
2023-01-04T21:27:44.960Z,100.00
2023-01-04T21:30:12.186Z,100.00
2023-01-04T21:32:38.779Z,100.00
2023-01-04T21:35:06.295Z,100.00
2023-01-04T21:37:33.116Z,100.00
2023-01-04T21:39:59.710Z,100.00
2023-01-04T21:42:28.398Z,100.00
2023-01-04T21:44:55.012Z,100.00
2023-01-04T21:47:21.623Z,100.00
2023-01-04T21:49:48.207Z,100.00
2023-01-04T21:52:14.823Z,100.00
2023-01-04T21:54:41.418Z,100.00
2023-01-04T21:57:08.249Z,100.00
2023-01-04T21:59:36.069Z,100.00
2023-01-04T22:02:02.977Z,100.00
2023-01-04T22:04:30.009Z,100.00
2023-01-04T22:06:56.758Z,100.00
2023-01-04T22:09:23.873Z,100.00
2023-01-04T22:11:50.871Z,100.00
2023-01-04T22:14:18.482Z,100.00
2023-01-04T22:16:45.192Z,100.00
2023-01-04T22:19:13.361Z,100.00
2023-01-04T22:21:40.300Z,100.00
2023-01-04T22:24:07.839Z,100.00
2023-01-04T22:26:34.479Z,100.00
2023-01-04T22:29:01.315Z,100.00
2023-01-04T22:31:28.321Z,100.00
2023-01-04T22:33:54.990Z,100.00
2023-01-04T22:36:23.538Z,100.00
2023-01-04T22:38:56.245Z,100.00
2023-01-04T22:41:26.098Z,100.00
2023-01-04T22:43:57.927Z,100.00
2023-01-04T22:46:26.219Z,100.00
2023-01-04T22:48:52.949Z,100.00
2023-01-04T22:51:21.853Z,100.00
2023-01-04T22:53:49.435Z,100.00
2023-01-04T22:56:20.287Z,100.00
2023-01-04T22:58:52.999Z,100.00
2023-01-04T23:01:21.676Z,100.00
2023-01-04T23:03:48.591Z,100.00
2023-01-04T23:06:15.606Z,100.00
2023-01-04T23:08:42.239Z,100.00
2023-01-04T23:11:19.477Z,100.00
2023-01-04T23:13:46.421Z,100.00
2023-01-04T23:16:15.403Z,100.00
2023-01-04T23:18:42.479Z,100.00
2023-01-04T23:21:09.730Z,100.00
2023-01-04T23:23:36.514Z,100.00
2023-01-04T23:26:24.606Z,100.00
2023-01-04T23:28:51.508Z,100.00
2023-01-04T23:31:21.284Z,100.00
2023-01-04T23:33:51.974Z,100.00
2023-01-04T23:36:21.527Z,100.00
2023-01-04T23:38:56.603Z,100.00
2023-01-04T23:41:44.471Z,100.00
2023-01-04T23:44:20.358Z,100.00
2023-01-04T23:46:54.440Z,100.00
2023-01-04T23:49:22.607Z,100.00
2023-01-04T23:51:49.315Z,100.00
2023-01-04T23:54:16.031Z,100.00
2023-01-04T23:56:42.627Z,100.00
2023-01-04T23:59:09.698Z,100.00
